createdAt,value
2022-10-26T00:03:06.841Z,17
2022-10-26T00:08:18.756Z,16
2022-10-26T00:13:30.938Z,17
2022-10-26T00:18:42.945Z,17
2022-10-26T00:23:55.003Z,16
2022-10-26T00:29:06.883Z,16
2022-10-26T00:34:18.956Z,16
2022-10-26T00:39:30.807Z,16
2022-10-26T00:44:42.630Z,16
2022-10-26T00:49:54.570Z,16
2022-10-26T00:55:06.747Z,16
2022-10-26T01:00:19.093Z,16
2022-10-26T01:05:30.870Z,16
2022-10-26T01:10:42.855Z,16
2022-10-26T01:15:54.729Z,16
2022-10-26T01:21:06.750Z,16
2022-10-26T01:26:18.706Z,16
2022-10-26T01:31:30.610Z,16
2022-10-26T01:36:44.522Z,16
2022-10-26T01:41:55.735Z,16
2022-10-26T01:47:07.576Z,16
2022-10-26T01:52:19.470Z,16
2022-10-26T01:57:31.565Z,16
2022-10-26T02:02:43.537Z,16
2022-10-26T02:07:55.420Z,16
2022-10-26T02:13:07.444Z,15
2022-10-26T02:18:19.371Z,16
2022-10-26T02:23:31.351Z,16
2022-10-26T02:28:43.416Z,16
2022-10-26T02:33:55.252Z,16
2022-10-26T02:39:07.392Z,16
2022-10-26T02:44:19.199Z,15
2022-10-26T02:49:31.103Z,16
2022-10-26T02:54:43.051Z,16
2022-10-26T02:59:55.075Z,15
2022-10-26T03:05:07.181Z,16
2022-10-26T03:10:19.023Z,16
2022-10-26T03:15:31.046Z,16
2022-10-26T03:20:42.869Z,16
2022-10-26T03:25:54.820Z,16
2022-10-26T03:31:06.675Z,16
2022-10-26T03:36:18.372Z,16
2022-10-26T03:41:30.219Z,16
2022-10-26T03:46:42.176Z,16
2022-10-26T03:51:55.181Z,15
2022-10-26T03:57:06.694Z,16
2022-10-26T04:02:18.577Z,15
2022-10-26T04:07:30.488Z,16
2022-10-26T04:12:42.518Z,16
2022-10-26T04:17:54.314Z,16
2022-10-26T04:23:06.598Z,16
2022-10-26T04:28:37.981Z,16
2022-10-26T04:33:46.641Z,16
2022-10-26T04:38:58.579Z,16
2022-10-26T04:44:10.710Z,15
2022-10-26T04:49:22.854Z,15
2022-10-26T04:54:35.055Z,15
2022-10-26T04:59:47.200Z,15
2022-10-26T05:04:59.531Z,15
2022-10-26T05:10:11.520Z,15
2022-10-26T05:15:23.901Z,15
2022-10-26T05:20:35.884Z,15
2022-10-26T05:25:48.037Z,15
2022-10-26T05:31:00.285Z,15
2022-10-26T05:36:12.623Z,15
2022-10-26T05:41:24.506Z,15
2022-10-26T05:46:37.721Z,15
2022-10-26T05:51:49.612Z,16
2022-10-26T05:57:01.907Z,16
2022-10-26T06:02:14.549Z,16
2022-10-26T06:07:26.847Z,16
2022-10-26T06:12:39.029Z,16
2022-10-26T06:17:51.277Z,16
2022-10-26T06:23:03.312Z,16
2022-10-26T06:28:15.613Z,16
2022-10-26T06:33:31.914Z,16
2022-10-26T06:38:48.441Z,16
2022-10-26T06:44:00.583Z,16
2022-10-26T06:49:12.980Z,16
2022-10-26T06:54:25.250Z,16
2022-10-26T06:59:38.482Z,17
2022-10-26T07:04:50.514Z,17
2022-10-26T07:10:02.917Z,17
2022-10-26T07:15:15.285Z,17
2022-10-26T07:20:27.551Z,17
2022-10-26T07:25:39.837Z,17
2022-10-26T07:30:56.674Z,17
2022-10-26T07:36:12.085Z,17
2022-10-26T07:41:24.389Z,17
2022-10-26T07:46:36.579Z,17
2022-10-26T07:51:49.019Z,18
2022-10-26T07:57:01.654Z,18
2022-10-26T08:02:14.875Z,17
2022-10-26T08:07:26.874Z,17
2022-10-26T08:12:39.197Z,17
2022-10-26T08:17:52.634Z,18
2022-10-26T08:23:04.556Z,18
2022-10-26T08:28:16.780Z,18
2022-10-26T08:33:29.023Z,18
2022-10-26T08:38:41.351Z,18
2022-10-26T08:43:53.393Z,17
2022-10-26T08:49:05.629Z,18
2022-10-26T08:54:17.659Z,18
2022-10-26T08:59:30.003Z,18
2022-10-26T09:04:42.350Z,18
2022-10-26T09:09:55.019Z,19
2022-10-26T09:15:07.174Z,19
2022-10-26T09:20:19.813Z,19
2022-10-26T09:25:32.141Z,19
2022-10-26T09:30:44.523Z,19
2022-10-26T09:35:57.701Z,19
2022-10-26T09:41:09.761Z,20
2022-10-26T09:46:22.083Z,20
2022-10-26T09:51:34.258Z,20
2022-10-26T09:56:46.616Z,20
2022-10-26T10:01:59.255Z,20
2022-10-26T10:07:11.576Z,20
2022-10-26T10:12:23.962Z,21
2022-10-26T10:17:36.397Z,21
2022-10-26T10:22:48.760Z,21
2022-10-26T10:28:01.121Z,21
2022-10-26T10:33:13.706Z,21
2022-10-26T10:38:27.890Z,21
2022-10-26T10:43:40.339Z,22
2022-10-26T10:48:52.673Z,22
2022-10-26T10:54:06.210Z,22
2022-10-26T10:59:18.510Z,22
2022-10-26T11:04:31.458Z,23
2022-10-26T11:09:45.909Z,25
2022-10-26T11:15:00.615Z,28
2022-10-26T11:25:44.048Z,30
2022-10-26T11:30:57.384Z,31
2022-10-26T11:36:10.392Z,31
2022-10-26T11:41:23.469Z,32
2022-10-26T11:46:36.298Z,32
2022-10-26T11:51:49.006Z,32
2022-10-26T11:57:02.033Z,32
2022-10-26T12:02:14.116Z,32
2022-10-26T12:12:38.272Z,31
2022-10-26T12:17:52.036Z,32
2022-10-26T12:23:04.764Z,32
2022-10-26T12:38:39.067Z,33
2022-10-26T12:49:02.361Z,31
2022-10-26T12:54:15.667Z,32
2022-10-26T12:59:28.438Z,32
2022-10-26T13:04:41.248Z,32
2022-10-26T13:20:14.670Z,32
2022-10-26T13:25:26.671Z,32
2022-10-26T13:35:49.452Z,31
2022-10-26T13:41:01.599Z,31
2022-10-26T13:46:13.570Z,30
2022-10-26T13:56:35.157Z,29
2022-10-26T14:12:06.545Z,26
2022-10-26T14:17:18.518Z,26
2022-10-26T14:22:31.025Z,25
2022-10-26T14:27:43.188Z,25
2022-10-26T14:38:05.532Z,25
2022-10-26T14:43:17.976Z,25
2022-10-26T14:48:30.195Z,25
2022-10-26T14:53:42.601Z,25
2022-10-26T14:58:55.015Z,25
2022-10-26T15:04:07.714Z,24
2022-10-26T15:09:19.991Z,24
2022-10-26T15:14:32.227Z,24
2022-10-26T15:19:44.600Z,24
2022-10-26T15:30:07.028Z,24
2022-10-26T15:40:30.284Z,23
2022-10-26T15:45:42.337Z,23
2022-10-26T15:50:54.351Z,23
2022-10-26T16:01:17.130Z,23
2022-10-26T16:06:29.463Z,23
2022-10-26T16:11:41.341Z,22
2022-10-26T16:16:53.414Z,22
2022-10-26T16:27:15.055Z,22
2022-10-26T16:37:36.871Z,21
2022-10-26T16:47:58.537Z,20
2022-10-26T16:53:10.676Z,20
2022-10-26T16:58:22.561Z,20
2022-10-26T17:03:34.588Z,20
2022-10-26T17:08:46.742Z,20
2022-10-26T17:13:58.859Z,20
2022-10-26T17:19:11.040Z,20
2022-10-26T17:24:24.284Z,20
2022-10-26T17:34:46.496Z,20
2022-10-26T17:39:58.394Z,20
2022-10-26T17:45:10.452Z,20
2022-10-26T17:50:22.625Z,20
2022-10-26T17:55:34.718Z,20
2022-10-26T18:00:50.472Z,20
2022-10-26T18:06:01.921Z,19
2022-10-26T18:11:14.249Z,19
2022-10-26T18:16:29.132Z,19
2022-10-26T18:21:40.403Z,19
2022-10-26T18:26:52.435Z,19
2022-10-26T18:32:04.822Z,19
2022-10-26T18:37:17.019Z,19
2022-10-26T18:42:29.123Z,19
2022-10-26T18:47:41.438Z,19
2022-10-26T18:52:53.235Z,19
2022-10-26T18:58:05.867Z,18
2022-10-26T19:03:19.290Z,19
2022-10-26T19:08:31.278Z,19
2022-10-26T19:13:43.412Z,19
2022-10-26T19:18:55.632Z,18
2022-10-26T19:24:07.789Z,18
2022-10-26T19:29:19.916Z,18
2022-10-26T19:34:32.704Z,18
2022-10-26T19:39:44.625Z,18
2022-10-26T19:44:56.489Z,18
2022-10-26T19:50:08.674Z,18
2022-10-26T19:55:20.472Z,18
2022-10-26T20:00:33.166Z,18
2022-10-26T20:05:45.215Z,18
2022-10-26T20:10:57.055Z,18
2022-10-26T20:16:11.353Z,18
2022-10-26T20:21:23.326Z,18
2022-10-26T20:26:35.155Z,18
2022-10-26T20:31:48.688Z,17
2022-10-26T20:37:05.741Z,17
2022-10-26T20:42:20.394Z,17
2022-10-26T20:47:34.392Z,17
2022-10-26T20:52:46.327Z,17
2022-10-26T20:57:58.706Z,17
2022-10-26T21:03:10.592Z,17
2022-10-26T21:08:22.385Z,17
2022-10-26T21:13:34.464Z,17
2022-10-26T21:18:46.484Z,16
2022-10-26T21:23:58.429Z,17
2022-10-26T21:29:10.536Z,17
2022-10-26T21:34:22.539Z,17
2022-10-26T21:39:34.415Z,17
2022-10-26T21:44:46.730Z,17
2022-10-26T21:49:58.883Z,17
2022-10-26T21:55:10.488Z,17
2022-10-26T22:00:22.437Z,17
2022-10-26T22:05:34.394Z,16
2022-10-26T22:10:59.852Z,16
2022-10-26T22:16:08.759Z,16
2022-10-26T22:21:20.751Z,16
2022-10-26T22:26:32.727Z,16
2022-10-26T22:31:44.596Z,16
2022-10-26T22:36:56.561Z,16
2022-10-26T22:42:08.358Z,16
2022-10-26T22:47:20.293Z,16
2022-10-26T22:52:32.181Z,16
2022-10-26T22:57:44.473Z,16
2022-10-26T23:02:56.125Z,16
2022-10-26T23:08:08.014Z,16
2022-10-26T23:13:19.593Z,16
2022-10-26T23:18:31.492Z,16
2022-10-26T23:23:43.485Z,16
2022-10-26T23:28:55.434Z,16
2022-10-26T23:34:07.385Z,15
2022-10-26T23:39:19.494Z,15
2022-10-26T23:44:31.487Z,15
2022-10-26T23:49:43.337Z,15
2022-10-26T23:54:55.838Z,15
